createdAt,value
2022-12-12T00:03:11.282Z,26.00
2022-12-12T00:06:53.290Z,25.55
2022-12-12T00:10:35.499Z,25.58
2022-12-12T00:14:18.466Z,26.92
2022-12-12T00:18:00.279Z,28.95
2022-12-12T00:21:42.276Z,26.17
2022-12-12T00:25:24.047Z,25.60
2022-12-12T00:29:05.848Z,25.95
2022-12-12T00:32:47.648Z,30.88
2022-12-12T00:36:32.058Z,25.05
2022-12-12T00:40:13.837Z,32.08
2022-12-12T00:43:55.731Z,28.33
2022-12-12T00:47:37.599Z,25.15
2022-12-12T00:51:21.830Z,26.42
2022-12-12T00:55:04.041Z,26.15
2022-12-12T00:58:46.023Z,27.35
2022-12-12T01:02:28.506Z,24.13
2022-12-12T01:06:11.112Z,23.57
2022-12-12T01:09:52.842Z,23.98
2022-12-12T01:13:35.031Z,23.95
2022-12-12T01:17:16.840Z,24.88
2022-12-12T01:20:58.601Z,21.30
2022-12-12T01:24:40.377Z,20.80
2022-12-12T01:28:22.115Z,21.25
2022-12-12T01:32:04.519Z,21.85
2022-12-12T01:35:46.259Z,24.83
2022-12-12T01:39:27.999Z,21.98
2022-12-12T01:43:17.662Z,26.58
2022-12-12T01:46:59.411Z,20.63
2022-12-12T01:50:43.149Z,18.90
2022-12-12T01:54:31.341Z,16.25
2022-12-12T01:58:13.979Z,19.45
2022-12-12T02:01:56.816Z,21.67
2022-12-12T02:05:51.071Z,19.30
2022-12-12T02:09:34.510Z,21.58
2022-12-12T02:13:20.408Z,20.83
2022-12-12T02:17:36.346Z,20.02
2022-12-12T02:21:31.485Z,20.58
2022-12-12T02:25:42.131Z,23.17
2022-12-12T02:30:21.092Z,26.90
2022-12-12T02:34:31.616Z,19.63
2022-12-12T02:38:32.023Z,20.67
2022-12-12T02:42:51.883Z,25.67
2022-12-12T02:46:39.949Z,19.17
2022-12-12T02:50:25.699Z,19.70
2022-12-12T02:54:16.314Z,22.10
2022-12-12T02:57:58.348Z,23.70
2022-12-12T03:02:04.787Z,26.33
2022-12-12T03:06:15.876Z,23.02
2022-12-12T03:10:29.647Z,19.80
2022-12-12T03:14:26.666Z,25.83
2022-12-12T03:18:32.585Z,20.88
2022-12-12T03:22:37.825Z,24.67
2022-12-12T03:26:27.267Z,23.45
2022-12-12T03:30:13.405Z,28.77
2022-12-12T03:34:38.463Z,23.83
2022-12-12T03:38:31.754Z,23.95
2022-12-12T03:42:31.719Z,23.50
2022-12-12T03:46:20.714Z,26.60
2022-12-12T03:50:15.695Z,24.77
2022-12-12T03:54:14.715Z,25.00
2022-12-12T03:58:09.685Z,24.10
2022-12-12T04:01:56.332Z,26.80
2022-12-12T04:06:05.145Z,25.33
2022-12-12T04:10:05.795Z,28.98
2022-12-12T04:14:04.367Z,24.58
2022-12-12T04:18:02.370Z,25.02
2022-12-12T04:22:15.293Z,22.48
2022-12-12T04:26:32.086Z,21.35
2022-12-12T04:30:15.844Z,24.40
2022-12-12T04:34:04.042Z,23.17
2022-12-12T04:37:51.095Z,25.85
2022-12-12T04:41:34.777Z,21.05
2022-12-12T04:45:22.579Z,22.27
2022-12-12T04:49:12.072Z,23.73
2022-12-12T04:52:56.918Z,26.80
2022-12-12T04:56:39.683Z,23.65
2022-12-12T05:00:24.751Z,27.90
2022-12-12T05:04:17.143Z,22.65
2022-12-12T05:08:14.853Z,21.00
2022-12-12T05:11:56.756Z,29.63
2022-12-12T05:15:44.723Z,22.75
2022-12-12T05:19:26.695Z,24.92
2022-12-12T05:23:08.467Z,28.25
2022-12-12T05:26:50.203Z,27.35
2022-12-12T05:30:32.650Z,27.08
2022-12-12T05:34:14.483Z,28.00
2022-12-12T05:37:56.601Z,25.30
2022-12-12T05:41:38.363Z,25.15
2022-12-12T05:45:20.214Z,25.25
2022-12-12T05:49:02.071Z,25.90
2022-12-12T05:52:43.849Z,27.05
2022-12-12T05:56:25.652Z,29.88
2022-12-12T06:00:08.324Z,26.67
2022-12-12T06:03:50.149Z,29.30
2022-12-12T06:07:31.950Z,31.23
2022-12-12T06:11:13.688Z,29.25
2022-12-12T06:14:55.555Z,30.13
2022-12-12T06:18:37.696Z,27.38
2022-12-12T06:22:19.458Z,26.17
2022-12-12T06:26:01.208Z,31.40
2022-12-12T06:29:42.985Z,33.88
2022-12-12T06:33:25.648Z,28.08
2022-12-12T06:37:09.811Z,27.77
2022-12-12T06:40:56.042Z,31.65
2022-12-12T06:44:37.827Z,32.08
2022-12-12T06:48:19.587Z,29.55
2022-12-12T06:52:01.303Z,26.52
2022-12-12T06:55:43.924Z,31.92
2022-12-12T06:59:25.922Z,30.63
2022-12-12T07:03:09.867Z,31.45
2022-12-12T07:06:52.124Z,28.63
2022-12-12T07:10:35.726Z,34.13
2022-12-12T07:17:59.239Z,28.05
2022-12-12T07:21:40.978Z,33.53
2022-12-12T07:25:22.716Z,31.73
2022-12-12T07:29:05.353Z,38.05
2022-12-12T07:32:47.124Z,37.77
2022-12-12T07:36:28.948Z,34.47
2022-12-12T07:40:10.959Z,36.45
2022-12-12T07:43:52.734Z,36.42
2022-12-12T07:47:34.718Z,34.55
2022-12-12T07:51:17.409Z,35.42
2022-12-12T07:54:59.135Z,34.77
2022-12-12T07:58:41.275Z,34.08
2022-12-12T08:02:23.071Z,39.53
2022-12-12T08:06:06.858Z,38.85
2022-12-12T08:09:48.602Z,36.03
2022-12-12T08:13:30.335Z,35.15
2022-12-12T08:17:12.778Z,37.95
2022-12-12T08:21:03.501Z,38.05
2022-12-12T08:24:45.330Z,36.08
2022-12-12T08:28:27.056Z,36.15
2022-12-12T08:32:08.928Z,39.17
2022-12-12T08:35:50.745Z,37.10
2022-12-12T08:39:32.497Z,34.80
2022-12-12T08:43:14.243Z,38.50
2022-12-12T08:46:56.146Z,40.92
2022-12-12T08:50:40.532Z,35.08
2022-12-12T08:54:22.448Z,35.55
2022-12-12T08:58:04.327Z,36.15
2022-12-12T09:01:46.168Z,35.55
2022-12-12T09:05:28.240Z,35.75
2022-12-12T09:09:10.056Z,31.92
2022-12-12T09:12:52.056Z,36.53
2022-12-12T09:16:33.853Z,43.80
2022-12-12T09:20:16.073Z,38.58
2022-12-12T09:23:58.159Z,39.38
2022-12-12T09:27:39.891Z,44.85
2022-12-12T09:31:21.707Z,40.63
2022-12-12T09:35:03.661Z,38.13
2022-12-12T09:38:45.846Z,34.53
2022-12-12T09:42:33.347Z,35.72
2022-12-12T09:46:30.849Z,37.22
2022-12-12T09:50:21.691Z,35.95
2022-12-12T09:54:03.776Z,36.80
2022-12-12T09:58:23.043Z,42.50
2022-12-12T10:02:37.175Z,39.83
2022-12-12T10:10:29.827Z,40.40
2022-12-12T10:14:12.967Z,38.97
2022-12-12T10:17:59.145Z,39.50
2022-12-12T10:21:41.424Z,39.85
2022-12-12T10:25:28.839Z,39.38
2022-12-12T10:29:14.867Z,42.75
2022-12-12T10:32:59.408Z,45.15
2022-12-12T10:37:08.879Z,42.42
2022-12-12T10:41:07.067Z,42.60
2022-12-12T10:45:19.243Z,39.47
2022-12-12T10:49:01.131Z,38.38
2022-12-12T10:52:42.882Z,37.28
2022-12-12T10:56:28.944Z,36.33
2022-12-12T11:00:27.052Z,35.78
2022-12-12T11:04:08.910Z,34.85
2022-12-12T11:08:00.016Z,44.30
2022-12-12T11:12:04.383Z,36.83
2022-12-12T11:15:50.976Z,40.58
2022-12-12T11:19:39.312Z,46.17
2022-12-12T11:23:26.708Z,39.03
2022-12-12T11:27:26.000Z,41.58
2022-12-12T11:31:12.720Z,42.00
2022-12-12T11:35:01.574Z,34.72
2022-12-12T11:39:00.501Z,42.95
2022-12-12T11:42:42.257Z,42.67
2022-12-12T11:46:30.612Z,42.22
2022-12-12T11:50:27.675Z,39.38
2022-12-12T11:54:16.420Z,44.92
2022-12-12T11:58:22.664Z,40.67
2022-12-12T12:02:29.206Z,38.75
2022-12-12T12:06:31.379Z,42.03
2022-12-12T12:10:45.899Z,38.30
2022-12-12T12:14:30.466Z,44.35
2022-12-12T12:18:30.061Z,38.60
2022-12-12T12:22:33.171Z,42.35
2022-12-12T12:26:30.075Z,45.17
2022-12-12T12:30:28.482Z,41.45
2022-12-12T12:34:13.351Z,37.78
2022-12-12T12:38:05.250Z,38.33
2022-12-12T12:42:01.772Z,34.75
2022-12-12T12:46:03.838Z,35.80
2022-12-12T12:49:57.785Z,39.03
2022-12-12T12:53:45.950Z,43.28
2022-12-12T12:57:39.118Z,37.80
2022-12-12T13:01:31.689Z,36.78
2022-12-12T13:05:39.943Z,39.03
2022-12-12T13:09:24.474Z,34.47
2022-12-12T13:13:30.003Z,35.65
2022-12-12T13:17:20.680Z,39.72
2022-12-12T13:21:08.595Z,34.70
2022-12-12T13:25:13.599Z,36.35
2022-12-12T13:29:03.547Z,36.70
2022-12-12T13:32:57.367Z,35.17
2022-12-12T13:36:43.133Z,31.27
2022-12-12T13:40:45.359Z,38.53
2022-12-12T13:44:34.704Z,35.95
2022-12-12T13:48:28.431Z,37.92
2022-12-12T13:56:34.228Z,32.08
2022-12-12T14:00:17.495Z,31.95
2022-12-12T14:07:53.003Z,33.13
2022-12-12T14:11:36.893Z,27.70
2022-12-12T14:15:28.777Z,26.25
2022-12-12T14:19:27.465Z,23.63
2022-12-12T14:23:24.410Z,22.48
2022-12-12T14:27:09.778Z,23.77
2022-12-12T14:31:14.400Z,20.23
2022-12-12T14:35:17.945Z,16.10
2022-12-12T14:39:25.543Z,15.18
2022-12-12T14:43:26.627Z,19.60
2022-12-12T14:47:08.949Z,21.40
2022-12-12T14:50:59.285Z,15.30
2022-12-12T14:54:41.162Z,20.38
2022-12-12T14:58:26.456Z,22.35
2022-12-12T15:02:38.934Z,19.63
2022-12-12T15:06:23.780Z,16.02
2022-12-12T15:10:27.224Z,20.35
2022-12-12T15:14:20.201Z,20.83
2022-12-12T15:18:02.627Z,28.92
2022-12-12T15:21:45.663Z,28.20
2022-12-12T15:25:53.938Z,22.08
2022-12-12T15:29:37.493Z,25.58
2022-12-12T15:37:12.390Z,24.30
2022-12-12T15:40:57.372Z,25.75
2022-12-12T15:44:41.798Z,21.45
2022-12-12T15:48:25.693Z,19.55
2022-12-12T15:52:26.467Z,37.28
2022-12-12T15:56:23.173Z,25.63
2022-12-12T16:00:11.778Z,22.67
2022-12-12T16:04:22.887Z,20.08
2022-12-12T16:08:31.434Z,20.92
2022-12-12T16:12:52.443Z,20.73
2022-12-12T16:16:43.207Z,22.65
2022-12-12T16:20:30.268Z,22.50
2022-12-12T16:24:21.568Z,20.15
2022-12-12T16:28:09.903Z,30.33
2022-12-12T16:31:51.855Z,24.35
2022-12-12T16:35:34.150Z,26.92
2022-12-12T16:39:17.049Z,26.65
2022-12-12T16:43:09.385Z,29.40
2022-12-12T16:46:52.771Z,30.00
2022-12-12T16:50:34.519Z,33.60
2022-12-12T16:54:17.244Z,30.00
2022-12-12T16:57:59.023Z,25.63
2022-12-12T17:01:40.849Z,28.15
2022-12-12T17:05:24.962Z,30.40
2022-12-12T17:09:06.694Z,30.25
2022-12-12T17:12:49.667Z,29.98
2022-12-12T17:16:31.547Z,26.85
2022-12-12T17:20:14.402Z,31.23
2022-12-12T17:23:56.347Z,29.75
2022-12-12T17:27:38.515Z,29.55
2022-12-12T17:31:20.387Z,30.48
2022-12-12T17:35:02.604Z,33.53
2022-12-12T17:38:44.387Z,27.23
2022-12-12T17:42:26.308Z,34.53
2022-12-12T17:46:14.955Z,27.30
2022-12-12T17:49:56.905Z,25.88
2022-12-12T17:53:39.202Z,31.85
2022-12-12T17:57:25.248Z,29.45
2022-12-12T18:01:19.583Z,23.77
2022-12-12T18:05:03.638Z,28.13
2022-12-12T18:08:45.536Z,27.92
2022-12-12T18:12:27.659Z,31.38
2022-12-12T18:16:11.644Z,21.83
2022-12-12T18:19:53.571Z,27.70
2022-12-12T18:23:35.900Z,27.77
2022-12-12T18:27:17.741Z,25.42
2022-12-12T18:30:59.586Z,32.38
2022-12-12T18:34:42.276Z,32.30
2022-12-12T18:38:24.134Z,31.03
2022-12-12T18:42:05.984Z,28.17
2022-12-12T18:45:47.788Z,29.27
2022-12-12T18:49:29.552Z,32.00
2022-12-12T18:53:11.605Z,34.38
2022-12-12T18:56:54.030Z,31.75
2022-12-12T19:00:38.054Z,29.67
2022-12-12T19:04:23.424Z,31.20
2022-12-12T19:08:05.746Z,33.30
2022-12-12T19:11:47.843Z,31.55
2022-12-12T19:15:29.792Z,37.53
2022-12-12T19:19:12.248Z,41.90
2022-12-12T19:22:54.146Z,42.33
2022-12-12T19:26:37.163Z,31.35
2022-12-12T19:30:19.159Z,25.48
2022-12-12T19:34:01.322Z,33.25
2022-12-12T19:37:43.131Z,38.67
2022-12-12T19:41:25.744Z,28.92
2022-12-12T19:45:08.772Z,37.20
2022-12-12T19:48:55.808Z,34.90
2022-12-12T19:52:37.686Z,34.88
2022-12-12T19:56:29.235Z,35.05
2022-12-12T20:00:11.795Z,41.42
2022-12-12T20:04:08.236Z,38.20
2022-12-12T20:07:50.082Z,37.15
2022-12-12T20:11:31.887Z,50.90
2022-12-12T20:15:13.611Z,40.05
2022-12-12T20:18:55.808Z,42.42
2022-12-12T20:22:37.633Z,41.33
2022-12-12T20:26:22.396Z,42.05
2022-12-12T20:30:04.653Z,41.25
2022-12-12T20:33:47.566Z,39.92
2022-12-12T20:37:29.317Z,35.42
2022-12-12T20:41:21.443Z,39.33
2022-12-12T20:45:03.487Z,37.47
2022-12-12T20:48:46.602Z,41.53
2022-12-12T20:52:29.242Z,39.65
2022-12-12T20:56:14.066Z,41.07
2022-12-12T20:59:55.806Z,35.13
2022-12-12T21:03:37.898Z,35.00
2022-12-12T21:07:19.724Z,37.63
2022-12-12T21:11:01.933Z,39.45
2022-12-12T21:14:43.704Z,33.40
2022-12-12T21:18:25.490Z,40.30
2022-12-12T21:22:08.373Z,34.55
2022-12-12T21:25:50.104Z,34.33
2022-12-12T21:29:31.859Z,33.50
2022-12-12T21:33:13.648Z,31.88
2022-12-12T21:36:56.199Z,35.92
2022-12-12T21:40:37.935Z,32.80
2022-12-12T21:44:20.691Z,34.72
2022-12-12T21:48:02.488Z,32.28
2022-12-12T21:51:44.803Z,39.67
2022-12-12T21:55:26.574Z,34.38
2022-12-12T21:59:08.381Z,30.42
2022-12-12T22:02:50.445Z,35.22
2022-12-12T22:06:35.143Z,33.90
2022-12-12T22:10:20.702Z,36.30
2022-12-12T22:14:03.023Z,36.63
2022-12-12T22:17:55.794Z,37.80
2022-12-12T22:21:37.564Z,40.73
2022-12-12T22:25:19.544Z,36.30
2022-12-12T22:29:04.657Z,36.45
2022-12-12T22:32:46.828Z,36.08
2022-12-12T22:36:31.041Z,36.45
2022-12-12T22:40:12.872Z,39.88
2022-12-12T22:43:56.515Z,34.88
2022-12-12T22:47:39.361Z,34.70
2022-12-12T22:51:24.175Z,26.95
2022-12-12T22:55:06.343Z,40.70
2022-12-12T22:58:48.149Z,39.00
2022-12-12T23:02:32.723Z,40.15
2022-12-12T23:06:19.690Z,38.15
2022-12-12T23:10:03.141Z,39.67
2022-12-12T23:13:49.352Z,40.13
2022-12-12T23:17:32.947Z,44.20
2022-12-12T23:21:17.988Z,40.75
2022-12-12T23:25:01.100Z,35.25
2022-12-12T23:28:44.624Z,40.58
2022-12-12T23:36:13.091Z,42.67
2022-12-12T23:39:54.918Z,42.83
2022-12-12T23:43:40.376Z,45.50
2022-12-12T23:47:22.208Z,48.15
2022-12-12T23:51:03.946Z,37.97
2022-12-12T23:54:45.716Z,40.58
2022-12-12T23:58:27.500Z,46.22
